sensor_id;sensor_type;location;lat;lon;timestamp;pressure;altitude;pressure_sealevel;temperature;humidity
57376;BME280;44805;45.048;5.062;2023-03-14T00:00:50;98844.81;;;12.50;100.00
57376;BME280;44805;45.048;5.062;2023-03-14T00:03:16;98848.13;;;12.52;100.00
57376;BME280;44805;45.048;5.062;2023-03-14T00:05:41;98858.66;;;12.52;100.00
57376;BME280;44805;45.048;5.062;2023-03-14T00:11:14;98815.59;;;12.51;100.00
57376;BME280;44805;45.048;5.062;2023-03-14T00:13:40;98803.56;;;12.64;100.00
57376;BME280;44805;45.048;5.062;2023-03-14T00:16:12;98810.19;;;12.74;100.00
57376;BME280;44805;45.048;5.062;2023-03-14T00:18:37;98806.19;;;12.64;99.43
57376;BME280;44805;45.048;5.062;2023-03-14T00:21:03;98797.47;;;12.63;100.00
57376;BME280;44805;45.048;5.062;2023-03-14T00:23:30;98799.72;;;12.66;99.84
57376;BME280;44805;45.048;5.062;2023-03-14T00:25:59;98819.50;;;12.70;100.00
57376;BME280;44805;45.048;5.062;2023-03-14T00:28:26;98836.16;;;12.56;99.54
57376;BME280;44805;45.048;5.062;2023-03-14T00:30:51;98843.16;;;12.49;100.00
57376;BME280;44805;45.048;5.062;2023-03-14T00:33:16;98851.09;;;12.49;100.00
57376;BME280;44805;45.048;5.062;2023-03-14T00:35:42;98864.56;;;12.54;99.79
57376;BME280;44805;45.048;5.062;2023-03-14T00:38:07;98895.44;;;12.38;98.44
57376;BME280;44805;45.048;5.062;2023-03-14T00:40:32;98889.44;;;12.45;94.11
57376;BME280;44805;45.048;5.062;2023-03-14T00:42:58;98879.78;;;12.52;91.97
57376;BME280;44805;45.048;5.062;2023-03-14T00:45:23;98902.72;;;12.66;87.94
57376;BME280;44805;45.048;5.062;2023-03-14T00:47:48;98902.72;;;12.66;87.95
57376;BME280;44805;45.048;5.062;2023-03-14T00:50:14;98918.94;;;12.63;87.10
57376;BME280;44805;45.048;5.062;2023-03-14T00:55:42;98927.88;;;12.62;88.71
57376;BME280;44805;45.048;5.062;2023-03-14T00:58:08;98913.28;;;12.66;90.56
57376;BME280;44805;45.048;5.062;2023-03-14T01:00:35;98913.84;;;12.47;90.15
57376;BME280;44805;45.048;5.062;2023-03-14T01:03:00;98899.25;;;12.51;88.80
57376;BME280;44805;45.048;5.062;2023-03-14T01:05:26;98884.22;;;12.22;91.54
57376;BME280;44805;45.048;5.062;2023-03-14T01:08:04;98880.97;;;12.34;93.18
57376;BME280;44805;45.048;5.062;2023-03-14T01:10:30;98881.78;;;12.50;93.46
57376;BME280;44805;45.048;5.062;2023-03-14T01:12:56;98887.16;;;12.56;95.82
57376;BME280;44805;45.048;5.062;2023-03-14T01:15:21;98894.09;;;12.57;95.32
57376;BME280;44805;45.048;5.062;2023-03-14T01:17:46;98891.88;;;12.46;97.23
57376;BME280;44805;45.048;5.062;2023-03-14T01:20:12;98893.44;;;12.41;96.39
57376;BME280;44805;45.048;5.062;2023-03-14T01:22:38;98885.63;;;12.62;96.50
57376;BME280;44805;45.048;5.062;2023-03-14T01:25:05;98884.31;;;12.28;98.71
57376;BME280;44805;45.048;5.062;2023-03-14T01:27:32;98885.78;;;12.46;98.01
57376;BME280;44805;45.048;5.062;2023-03-14T01:29:57;98886.78;;;12.45;96.15
57376;BME280;44805;45.048;5.062;2023-03-14T01:32:24;98891.25;;;12.59;98.35
57376;BME280;44805;45.048;5.062;2023-03-14T01:34:49;98904.81;;;12.41;98.29
57376;BME280;44805;45.048;5.062;2023-03-14T01:37:14;98914.66;;;12.47;99.03
57376;BME280;44805;45.048;5.062;2023-03-14T01:39:40;98920.47;;;12.43;97.27
57376;BME280;44805;45.048;5.062;2023-03-14T01:42:05;98915.09;;;12.51;97.54
57376;BME280;44805;45.048;5.062;2023-03-14T01:44:53;98913.84;;;12.47;96.45
57376;BME280;44805;45.048;5.062;2023-03-14T01:47:19;98916.47;;;12.47;98.41
57376;BME280;44805;45.048;5.062;2023-03-14T01:49:46;98916.66;;;12.45;97.69
57376;BME280;44805;45.048;5.062;2023-03-14T01:52:14;98912.00;;;12.32;98.64
57376;BME280;44805;45.048;5.062;2023-03-14T01:57:43;98921.94;;;12.45;100.00
57376;BME280;44805;45.048;5.062;2023-03-14T02:00:11;98917.94;;;12.49;99.00
57376;BME280;44805;45.048;5.062;2023-03-14T02:02:39;98915.91;;;12.51;99.24
57376;BME280;44805;45.048;5.062;2023-03-14T02:05:07;98906.75;;;12.62;98.99
57376;BME280;44805;45.048;5.062;2023-03-14T02:07:35;98899.44;;;12.64;98.36
57376;BME280;44805;45.048;5.062;2023-03-14T02:10:02;98891.88;;;12.61;99.38
57376;BME280;44805;45.048;5.062;2023-03-14T02:12:28;98878.31;;;12.64;99.78
57376;BME280;44805;45.048;5.062;2023-03-14T02:14:54;98878.88;;;12.45;100.00
57376;BME280;44805;45.048;5.062;2023-03-14T02:17:20;98861.38;;;12.44;100.00
57376;BME280;44805;45.048;5.062;2023-03-14T02:22:30;98866.47;;;12.30;100.00
57376;BME280;44805;45.048;5.062;2023-03-14T02:27:21;98847.72;;;12.10;100.00
57376;BME280;44805;45.048;5.062;2023-03-14T02:29:48;98848.19;;;12.29;100.00
57376;BME280;44805;45.048;5.062;2023-03-14T02:32:14;98844.19;;;12.33;100.00
57376;BME280;44805;45.048;5.062;2023-03-14T02:34:42;98844.16;;;12.18;100.00
57376;BME280;44805;45.048;5.062;2023-03-14T02:37:08;98825.31;;;12.21;100.00
57376;BME280;44805;45.048;5.062;2023-03-14T02:39:49;98822.69;;;12.21;100.00
57376;BME280;44805;45.048;5.062;2023-03-14T02:42:15;98805.31;;;12.12;100.00
57376;BME280;44805;45.048;5.062;2023-03-14T02:44:59;98813.88;;;12.14;100.00
57376;BME280;44805;45.048;5.062;2023-03-14T02:47:27;98820.78;;;12.30;100.00
57376;BME280;44805;45.048;5.062;2023-03-14T02:49:53;98812.34;;;12.20;100.00
57376;BME280;44805;45.048;5.062;2023-03-14T02:52:23;98821.69;;;12.22;100.00
57376;BME280;44805;45.048;5.062;2023-03-14T02:54:48;98802.31;;;12.15;100.00
57376;BME280;44805;45.048;5.062;2023-03-14T02:57:13;98802.91;;;11.87;100.00
57376;BME280;44805;45.048;5.062;2023-03-14T02:59:39;98802.44;;;11.84;100.00
57376;BME280;44805;45.048;5.062;2023-03-14T03:02:04;98803.69;;;11.73;100.00
57376;BME280;44805;45.048;5.062;2023-03-14T03:04:29;98802.91;;;11.49;100.00
57376;BME280;44805;45.048;5.062;2023-03-14T03:06:55;98804.63;;;11.42;100.00
57376;BME280;44805;45.048;5.062;2023-03-14T03:09:20;98806.19;;;11.28;100.00
57376;BME280;44805;45.048;5.062;2023-03-14T03:11:45;98791.84;;;11.31;100.00
57376;BME280;44805;45.048;5.062;2023-03-14T03:14:11;98802.28;;;11.47;100.00
57376;BME280;44805;45.048;5.062;2023-03-14T03:16:36;98797.34;;;11.44;100.00
57376;BME280;44805;45.048;5.062;2023-03-14T03:19:01;98805.31;;;11.36;100.00
57376;BME280;44805;45.048;5.062;2023-03-14T03:21:27;98810.41;;;11.38;100.00
57376;BME280;44805;45.048;5.062;2023-03-14T03:27:04;98805.31;;;11.36;100.00
57376;BME280;44805;45.048;5.062;2023-03-14T03:29:30;98813.97;;;11.22;100.00
57376;BME280;44805;45.048;5.062;2023-03-14T03:31:55;98806.72;;;11.24;100.00
57376;BME280;44805;45.048;5.062;2023-03-14T03:34:21;98801.78;;;11.21;100.00
57376;BME280;44805;45.048;5.062;2023-03-14T03:36:46;98791.19;;;11.29;100.00
57376;BME280;44805;45.048;5.062;2023-03-14T03:39:17;98784.06;;;11.38;100.00
57376;BME280;44805;45.048;5.062;2023-03-14T03:41:42;98774.41;;;11.30;100.00
57376;BME280;44805;45.048;5.062;2023-03-14T03:44:08;98763.88;;;11.30;100.00
57376;BME280;44805;45.048;5.062;2023-03-14T03:46:33;98764.16;;;11.35;100.00
57376;BME280;44805;45.048;5.062;2023-03-14T03:48:59;98759.44;;;11.45;100.00
57376;BME280;44805;45.048;5.062;2023-03-14T03:51:25;98758.44;;;11.46;100.00
57376;BME280;44805;45.048;5.062;2023-03-14T03:56:44;98747.53;;;11.49;100.00
57376;BME280;44805;45.048;5.062;2023-03-14T03:59:09;98745.09;;;11.48;100.00
57376;BME280;44805;45.048;5.062;2023-03-14T04:01:35;98741.09;;;11.37;100.00
57376;BME280;44805;45.048;5.062;2023-03-14T04:04:00;98727.41;;;11.34;100.00
57376;BME280;44805;45.048;5.062;2023-03-14T04:06:26;98721.91;;;11.43;95.41
57376;BME280;44805;45.048;5.062;2023-03-14T04:08:51;98716.13;;;11.63;93.27
57376;BME280;44805;45.048;5.062;2023-03-14T04:11:18;98709.75;;;11.72;92.61
57376;BME280;44805;45.048;5.062;2023-03-14T04:13:43;98712.78;;;11.84;91.15
57376;BME280;44805;45.048;5.062;2023-03-14T04:16:10;98710.66;;;11.79;89.63
57376;BME280;44805;45.048;5.062;2023-03-14T04:18:39;98702.22;;;11.84;89.06
57376;BME280;44805;45.048;5.062;2023-03-14T04:21:05;98701.56;;;11.82;89.44
57376;BME280;44805;45.048;5.062;2023-03-14T04:23:40;98691.84;;;11.67;88.10
57376;BME280;44805;45.048;5.062;2023-03-14T04:26:05;98690.03;;;11.68;89.03
57376;BME280;44805;45.048;5.062;2023-03-14T04:28:31;98689.56;;;11.79;89.26
57376;BME280;44805;45.048;5.062;2023-03-14T04:30:56;98688.47;;;11.59;89.09
57376;BME280;44805;45.048;5.062;2023-03-14T04:33:22;98683.19;;;11.59;90.06
57376;BME280;44805;45.048;5.062;2023-03-14T04:35:47;98686.84;;;11.58;87.44
57376;BME280;44805;45.048;5.062;2023-03-14T04:38:24;98683.31;;;11.65;86.21
57376;BME280;44805;45.048;5.062;2023-03-14T04:40:49;98674.13;;;11.76;86.71
57376;BME280;44805;45.048;5.062;2023-03-14T04:43:15;98665.75;;;11.72;88.15
57376;BME280;44805;45.048;5.062;2023-03-14T04:45:43;98657.81;;;11.72;87.52
57376;BME280;44805;45.048;5.062;2023-03-14T04:48:09;98660.56;;;11.64;85.82
57376;BME280;44805;45.048;5.062;2023-03-14T04:50:34;98665.94;;;11.71;87.23
57376;BME280;44805;45.048;5.062;2023-03-14T04:53:00;98669.56;;;11.70;86.99
57376;BME280;44805;45.048;5.062;2023-03-14T05:01:31;98659.38;;;11.67;85.62
57376;BME280;44805;45.048;5.062;2023-03-14T05:03:56;98657.50;;;11.76;85.11
57376;BME280;44805;45.048;5.062;2023-03-14T05:06:22;98649.75;;;11.74;84.81
57376;BME280;44805;45.048;5.062;2023-03-14T05:08:52;98641.03;;;11.88;85.03
57376;BME280;44805;45.048;5.062;2023-03-14T05:11:18;98648.75;;;11.90;84.63
57376;BME280;44805;45.048;5.062;2023-03-14T05:13:43;98650.03;;;11.79;83.62
57376;BME280;44805;45.048;5.062;2023-03-14T05:16:09;98636.94;;;11.86;83.15
57376;BME280;44805;45.048;5.062;2023-03-14T05:18:35;98643.31;;;11.91;82.32
57376;BME280;44805;45.048;5.062;2023-03-14T05:21:01;98650.75;;;12.03;82.76
57376;BME280;44805;45.048;5.062;2023-03-14T05:29:32;98658.56;;;12.47;77.47
57376;BME280;44805;45.048;5.062;2023-03-14T05:31:58;98653.91;;;12.71;78.48
57376;BME280;44805;45.048;5.062;2023-03-14T05:34:23;98658.19;;;12.72;78.46
57376;BME280;44805;45.048;5.062;2023-03-14T05:36:49;98653.28;;;12.69;78.20
57376;BME280;44805;45.048;5.062;2023-03-14T05:39:14;98658.00;;;12.52;79.61
57376;BME280;44805;45.048;5.062;2023-03-14T05:41:39;98659.94;;;12.43;80.08
57376;BME280;44805;45.048;5.062;2023-03-14T05:44:08;98654.44;;;12.59;80.22
57376;BME280;44805;45.048;5.062;2023-03-14T05:46:35;98662.59;;;12.28;80.11
57376;BME280;44805;45.048;5.062;2023-03-14T05:49:01;98659.56;;;12.10;82.80
57376;BME280;44805;45.048;5.062;2023-03-14T05:51:26;98679.69;;;11.96;83.17
57376;BME280;44805;45.048;5.062;2023-03-14T05:56:54;98647.44;;;12.15;81.68
57376;BME280;44805;45.048;5.062;2023-03-14T05:59:19;98648.94;;;12.40;82.91
57376;BME280;44805;45.048;5.062;2023-03-14T06:01:48;98644.78;;;12.30;83.45
57376;BME280;44805;45.048;5.062;2023-03-14T06:04:13;98654.34;;;12.31;83.11
57376;BME280;44805;45.048;5.062;2023-03-14T06:06:39;98659.19;;;12.13;84.51
57376;BME280;44805;45.048;5.062;2023-03-14T06:09:16;98664.84;;;12.10;83.46
57376;BME280;44805;45.048;5.062;2023-03-14T06:11:44;98658.63;;;12.18;83.10
57376;BME280;44805;45.048;5.062;2023-03-14T06:14:09;98664.19;;;12.23;82.17
57376;BME280;44805;45.048;5.062;2023-03-14T06:16:34;98665.50;;;12.33;81.69
57376;BME280;44805;45.048;5.062;2023-03-14T06:19:00;98664.16;;;12.37;81.77
57376;BME280;44805;45.048;5.062;2023-03-14T06:21:26;98670.06;;;12.40;82.34
57376;BME280;44805;45.048;5.062;2023-03-14T06:24:10;98677.47;;;12.29;82.79
57376;BME280;44805;45.048;5.062;2023-03-14T06:26:35;98681.31;;;11.97;85.21
57376;BME280;44805;45.048;5.062;2023-03-14T06:29:00;98684.78;;;11.98;85.69
57376;BME280;44805;45.048;5.062;2023-03-14T06:31:29;98684.50;;;11.92;86.97
57376;BME280;44805;45.048;5.062;2023-03-14T06:33:54;98682.06;;;11.91;86.91
57376;BME280;44805;45.048;5.062;2023-03-14T06:36:20;98682.59;;;12.01;87.46
57376;BME280;44805;45.048;5.062;2023-03-14T06:38:45;98684.66;;;12.06;85.46
57376;BME280;44805;45.048;5.062;2023-03-14T06:41:16;98686.75;;;11.95;86.06
57376;BME280;44805;45.048;5.062;2023-03-14T06:43:41;98684.41;;;11.86;86.55
57376;BME280;44805;45.048;5.062;2023-03-14T06:46:06;98690.56;;;11.63;87.16
57376;BME280;44805;45.048;5.062;2023-03-14T06:48:32;98687.41;;;11.68;87.16
57376;BME280;44805;45.048;5.062;2023-03-14T06:50:57;98695.59;;;11.73;87.07
57376;BME280;44805;45.048;5.062;2023-03-14T06:53:23;98686.97;;;11.94;86.46
57376;BME280;44805;45.048;5.062;2023-03-14T06:55:51;98696.34;;;11.97;87.37
57376;BME280;44805;45.048;5.062;2023-03-14T06:58:16;98695.22;;;12.06;85.40
57376;BME280;44805;45.048;5.062;2023-03-14T07:00:42;98706.88;;;11.97;84.57
57376;BME280;44805;45.048;5.062;2023-03-14T07:03:08;98699.50;;;11.92;83.92
57376;BME280;44805;45.048;5.062;2023-03-14T07:05:34;98709.59;;;12.03;82.61
57376;BME280;44805;45.048;5.062;2023-03-14T07:08:00;98709.53;;;11.97;82.05
57376;BME280;44805;45.048;5.062;2023-03-14T07:10:37;98713.50;;;12.07;81.88
57376;BME280;44805;45.048;5.062;2023-03-14T07:13:06;98716.41;;;12.12;82.09
57376;BME280;44805;45.048;5.062;2023-03-14T07:15:36;98723.69;;;12.10;80.83
57376;BME280;44805;45.048;5.062;2023-03-14T07:18:01;98726.88;;;12.21;79.71
57376;BME280;44805;45.048;5.062;2023-03-14T07:20:27;98718.78;;;12.22;79.84
57376;BME280;44805;45.048;5.062;2023-03-14T07:22:53;98728.81;;;11.97;81.27
57376;BME280;44805;45.048;5.062;2023-03-14T07:28:16;98737.72;;;11.96;80.14
57376;BME280;44805;45.048;5.062;2023-03-14T07:30:42;98744.81;;;11.95;80.65
57376;BME280;44805;45.048;5.062;2023-03-14T07:33:07;98749.16;;;12.03;80.47
57376;BME280;44805;45.048;5.062;2023-03-14T07:35:33;98748.81;;;12.06;81.21
57376;BME280;44805;45.048;5.062;2023-03-14T07:37:58;98756.91;;;12.05;80.10
57376;BME280;44805;45.048;5.062;2023-03-14T07:43:24;98774.47;;;12.12;80.65
57376;BME280;44805;45.048;5.062;2023-03-14T07:45:49;98795.47;;;12.06;79.12
57376;BME280;44805;45.048;5.062;2023-03-14T07:48:15;98784.50;;;12.17;80.75
57376;BME280;44805;45.048;5.062;2023-03-14T07:50:40;98785.13;;;12.19;80.48
57376;BME280;44805;45.048;5.062;2023-03-14T07:53:05;98798.22;;;12.27;80.34
57376;BME280;44805;45.048;5.062;2023-03-14T07:55:34;98806.84;;;12.21;81.45
57376;BME280;44805;45.048;5.062;2023-03-14T07:57:59;98816.88;;;12.26;81.33
57376;BME280;44805;45.048;5.062;2023-03-14T08:00:25;98832.25;;;12.22;80.60
57376;BME280;44805;45.048;5.062;2023-03-14T08:02:50;98830.97;;;12.18;81.27
57376;BME280;44805;45.048;5.062;2023-03-14T08:05:16;98838.34;;;12.23;81.37
57376;BME280;44805;45.048;5.062;2023-03-14T08:07:41;98839.16;;;12.23;81.19
57376;BME280;44805;45.048;5.062;2023-03-14T08:10:07;98848.53;;;12.26;81.01
57376;BME280;44805;45.048;5.062;2023-03-14T08:12:33;98855.72;;;12.17;80.42
57376;BME280;44805;45.048;5.062;2023-03-14T08:14:58;98873.41;;;12.31;80.68
57376;BME280;44805;45.048;5.062;2023-03-14T08:17:24;98869.03;;;12.38;80.97
57376;BME280;44805;45.048;5.062;2023-03-14T08:19:49;98876.59;;;12.27;81.00
57376;BME280;44805;45.048;5.062;2023-03-14T08:22:15;98894.88;;;12.28;81.22
57376;BME280;44805;45.048;5.062;2023-03-14T08:24:40;98900.63;;;12.32;81.51
57376;BME280;44805;45.048;5.062;2023-03-14T08:30:10;98915.69;;;12.23;81.30
57376;BME280;44805;45.048;5.062;2023-03-14T08:32:36;98924.19;;;12.33;81.09
57376;BME280;44805;45.048;5.062;2023-03-14T08:35:02;98936.31;;;12.43;81.03
57376;BME280;44805;45.048;5.062;2023-03-14T08:37:28;98924.91;;;12.27;80.98
57376;BME280;44805;45.048;5.062;2023-03-14T08:39:59;98934.03;;;12.40;80.27
57376;BME280;44805;45.048;5.062;2023-03-14T08:42:25;98948.44;;;12.52;80.64
57376;BME280;44805;45.048;5.062;2023-03-14T08:44:51;98955.69;;;12.35;80.91
57376;BME280;44805;45.048;5.062;2023-03-14T08:47:17;98943.22;;;12.44;79.97
57376;BME280;44805;45.048;5.062;2023-03-14T08:49:42;98965.53;;;12.41;78.79
57376;BME280;44805;45.048;5.062;2023-03-14T08:52:11;98988.38;;;12.49;77.84
57376;BME280;44805;45.048;5.062;2023-03-14T08:54:42;98990.59;;;12.60;77.03
57376;BME280;44805;45.048;5.062;2023-03-14T08:57:08;98985.78;;;12.78;75.36
57376;BME280;44805;45.048;5.062;2023-03-14T08:59:33;99009.03;;;12.98;74.62
57376;BME280;44805;45.048;5.062;2023-03-14T09:01:59;99002.38;;;13.02;74.21
57376;BME280;44805;45.048;5.062;2023-03-14T09:04:27;99007.38;;;12.97;72.29
57376;BME280;44805;45.048;5.062;2023-03-14T09:06:55;99023.22;;;12.82;71.57
57376;BME280;44805;45.048;5.062;2023-03-14T09:09:23;99034.28;;;12.86;70.44
57376;BME280;44805;45.048;5.062;2023-03-14T09:11:48;99045.84;;;12.99;69.01
57376;BME280;44805;45.048;5.062;2023-03-14T09:14:13;99059.16;;;12.91;69.71
57376;BME280;44805;45.048;5.062;2023-03-14T09:16:39;99062.00;;;13.19;69.22
57376;BME280;44805;45.048;5.062;2023-03-14T09:19:04;99062.84;;;13.35;67.97
57376;BME280;44805;45.048;5.062;2023-03-14T09:21:30;99069.31;;;13.47;67.30
57376;BME280;44805;45.048;5.062;2023-03-14T09:23:56;99078.72;;;12.97;64.51
57376;BME280;44805;45.048;5.062;2023-03-14T09:29:14;99076.78;;;13.58;64.89
57376;BME280;44805;45.048;5.062;2023-03-14T09:31:40;99087.44;;;13.50;61.54
57376;BME280;44805;45.048;5.062;2023-03-14T09:34:05;99100.16;;;13.02;60.91
57376;BME280;44805;45.048;5.062;2023-03-14T09:36:30;99096.03;;;13.52;62.44
57376;BME280;44805;45.048;5.062;2023-03-14T09:38:56;99112.91;;;13.51;60.52
57376;BME280;44805;45.048;5.062;2023-03-14T09:44:27;99135.06;;;13.65;60.08
57376;BME280;44805;45.048;5.062;2023-03-14T09:46:54;99147.66;;;13.33;55.96
57376;BME280;44805;45.048;5.062;2023-03-14T09:49:32;99143.28;;;13.70;59.47
57376;BME280;44805;45.048;5.062;2023-03-14T09:51:59;99161.97;;;13.68;57.33
57376;BME280;44805;45.048;5.062;2023-03-14T09:55:26;99174.19;;;13.17;53.46
57376;BME280;44805;45.048;5.062;2023-03-14T10:05:38;99188.50;;;13.22;52.78
57376;BME280;44805;45.048;5.062;2023-03-14T10:08:03;99190.69;;;13.19;50.82
57376;BME280;44805;45.048;5.062;2023-03-14T10:10:35;99206.53;;;13.42;52.20
57376;BME280;44805;45.048;5.062;2023-03-14T10:15:35;99205.34;;;13.30;50.43
57376;BME280;44805;45.048;5.062;2023-03-14T10:18:02;99204.97;;;13.33;49.91
57376;BME280;44805;45.048;5.062;2023-03-14T10:20:35;99208.25;;;13.35;48.53
57376;BME280;44805;45.048;5.062;2023-03-14T10:23:04;99229.97;;;13.45;48.44
57376;BME280;44805;45.048;5.062;2023-03-14T10:25:40;99212.38;;;13.37;47.33
57376;BME280;44805;45.048;5.062;2023-03-14T10:28:10;99221.34;;;13.51;48.27
57376;BME280;44805;45.048;5.062;2023-03-14T10:30:40;99215.50;;;13.41;49.39
57376;BME280;44805;45.048;5.062;2023-03-14T10:35:36;99228.44;;;13.36;48.39
57376;BME280;44805;45.048;5.062;2023-03-14T10:38:02;99229.28;;;13.51;46.28
57376;BME280;44805;45.048;5.062;2023-03-14T10:43:32;99234.84;;;13.71;48.67
57376;BME280;44805;45.048;5.062;2023-03-14T10:46:05;99242.81;;;14.01;48.12
57376;BME280;44805;45.048;5.062;2023-03-14T10:48:34;99246.91;;;14.18;47.37
57376;BME280;44805;45.048;5.062;2023-03-14T10:53:34;99256.69;;;14.18;49.66
57376;BME280;44805;45.048;5.062;2023-03-14T10:58:52;99271.81;;;13.94;49.38
57376;BME280;44805;45.048;5.062;2023-03-14T11:06:51;99277.88;;;14.18;48.15
57376;BME280;44805;45.048;5.062;2023-03-14T11:14:57;99281.22;;;14.41;48.99
57376;BME280;44805;45.048;5.062;2023-03-14T11:17:41;99278.47;;;14.34;49.44
57376;BME280;44805;45.048;5.062;2023-03-14T11:23:01;99275.28;;;14.39;48.14
57376;BME280;44805;45.048;5.062;2023-03-14T11:25:35;99278.97;;;14.53;47.68
57376;BME280;44805;45.048;5.062;2023-03-14T11:36:55;99290.47;;;14.45;48.83
57376;BME280;44805;45.048;5.062;2023-03-14T11:39:24;99291.69;;;14.79;50.61
57376;BME280;44805;45.048;5.062;2023-03-14T11:44:48;99287.34;;;14.57;48.17
57376;BME280;44805;45.048;5.062;2023-03-14T11:47:24;99287.06;;;14.37;49.08
57376;BME280;44805;45.048;5.062;2023-03-14T11:52:33;99288.53;;;14.24;49.79
57376;BME280;44805;45.048;5.062;2023-03-14T11:55:05;99280.91;;;14.15;49.19
57376;BME280;44805;45.048;5.062;2023-03-14T12:06:48;99272.06;;;14.73;50.14
57376;BME280;44805;45.048;5.062;2023-03-14T12:09:13;99249.19;;;15.09;47.27
57376;BME280;44805;45.048;5.062;2023-03-14T12:14:28;99255.00;;;15.19;48.50
57376;BME280;44805;45.048;5.062;2023-03-14T12:17:03;99251.44;;;15.55;46.57
57376;BME280;44805;45.048;5.062;2023-03-14T12:19:30;99246.34;;;15.60;46.89
57376;BME280;44805;45.048;5.062;2023-03-14T12:24:31;99237.19;;;15.91;44.71
57376;BME280;44805;45.048;5.062;2023-03-14T12:29:59;99241.28;;;16.35;47.21
57376;BME280;44805;45.048;5.062;2023-03-14T12:32:25;99230.34;;;16.10;45.78
57376;BME280;44805;45.048;5.062;2023-03-14T12:34:50;99229.41;;;15.89;46.06
57376;BME280;44805;45.048;5.062;2023-03-14T12:45:35;99221.13;;;15.21;49.00
57376;BME280;44805;45.048;5.062;2023-03-14T12:50:42;99218.06;;;15.17;47.14
57376;BME280;44805;45.048;5.062;2023-03-14T12:56:02;99217.81;;;15.12;48.22
57376;BME280;44805;45.048;5.062;2023-03-14T12:58:32;99215.00;;;15.20;47.20
57376;BME280;44805;45.048;5.062;2023-03-14T13:01:01;99217.97;;;15.32;47.45
57376;BME280;44805;45.048;5.062;2023-03-14T13:03:36;99219.59;;;15.33;47.77
57376;BME280;44805;45.048;5.062;2023-03-14T13:06:02;99215.47;;;15.24;46.66
57376;BME280;44805;45.048;5.062;2023-03-14T13:08:47;99223.06;;;15.34;48.49
57376;BME280;44805;45.048;5.062;2023-03-14T13:11:19;99236.00;;;14.94;46.75
57376;BME280;44805;45.048;5.062;2023-03-14T13:13:45;99223.69;;;14.86;46.92
57376;BME280;44805;45.048;5.062;2023-03-14T13:16:14;99217.13;;;15.04;48.05
57376;BME280;44805;45.048;5.062;2023-03-14T13:18:41;99227.03;;;14.95;47.52
57376;BME280;44805;45.048;5.062;2023-03-14T13:21:11;99220.09;;;14.94;47.59
57376;BME280;44805;45.048;5.062;2023-03-14T13:23:40;99223.03;;;15.06;47.18
57376;BME280;44805;45.048;5.062;2023-03-14T13:26:09;99231.44;;;15.09;47.17
57376;BME280;44805;45.048;5.062;2023-03-14T13:31:39;99235.53;;;15.33;45.41
57376;BME280;44805;45.048;5.062;2023-03-14T13:34:09;99235.13;;;15.64;46.08
57376;BME280;44805;45.048;5.062;2023-03-14T13:36:35;99231.38;;;15.74;46.20
57376;BME280;44805;45.048;5.062;2023-03-14T13:39:01;99233.59;;;15.49;46.15
57376;BME280;44805;45.048;5.062;2023-03-14T13:41:30;99233.75;;;15.69;46.66
57376;BME280;44805;45.048;5.062;2023-03-14T13:47:02;99254.22;;;15.25;47.40
57376;BME280;44805;45.048;5.062;2023-03-14T13:49:34;99244.25;;;15.27;46.92
57376;BME280;44805;45.048;5.062;2023-03-14T13:52:02;99248.53;;;15.28;48.40
57376;BME280;44805;45.048;5.062;2023-03-14T13:54:28;99250.06;;;15.16;47.69
57376;BME280;44805;45.048;5.062;2023-03-14T13:57:03;99244.72;;;15.09;48.07
57376;BME280;44805;45.048;5.062;2023-03-14T13:59:32;99242.53;;;15.41;46.80
57376;BME280;44805;45.048;5.062;2023-03-14T14:01:58;99232.78;;;15.48;45.09
57376;BME280;44805;45.048;5.062;2023-03-14T14:04:25;99234.47;;;15.56;42.77
57376;BME280;44805;45.048;5.062;2023-03-14T14:07:01;99248.94;;;15.53;44.73
57376;BME280;44805;45.048;5.062;2023-03-14T14:09:40;99245.91;;;15.07;43.29
57376;BME280;44805;45.048;5.062;2023-03-14T14:17:49;99248.94;;;15.25;42.63
57376;BME280;44805;45.048;5.062;2023-03-14T14:20:23;99263.56;;;15.43;43.35
57376;BME280;44805;45.048;5.062;2023-03-14T14:22:56;99259.88;;;15.44;40.26
57376;BME280;44805;45.048;5.062;2023-03-14T14:25:22;99266.97;;;15.36;40.29
57376;BME280;44805;45.048;5.062;2023-03-14T14:27:56;99262.38;;;15.24;41.69
57376;BME280;44805;45.048;5.062;2023-03-14T14:32:48;99271.44;;;14.93;41.08
57376;BME280;44805;45.048;5.062;2023-03-14T14:35:33;99279.19;;;14.73;38.34
57376;BME280;44805;45.048;5.062;2023-03-14T14:37:59;99275.81;;;14.49;37.30
57376;BME280;44805;45.048;5.062;2023-03-14T14:40:26;99273.72;;;14.45;37.27
57376;BME280;44805;45.048;5.062;2023-03-14T14:42:51;99268.97;;;14.70;37.94
57376;BME280;44805;45.048;5.062;2023-03-14T14:45:21;99269.81;;;14.92;38.34
57376;BME280;44805;45.048;5.062;2023-03-14T14:50:21;99268.22;;;14.76;36.20
57376;BME280;44805;45.048;5.062;2023-03-14T14:52:55;99271.66;;;15.13;35.95
57376;BME280;44805;45.048;5.062;2023-03-14T14:55:21;99266.19;;;15.14;35.18
57376;BME280;44805;45.048;5.062;2023-03-14T14:57:51;99271.34;;;15.23;36.10
57376;BME280;44805;45.048;5.062;2023-03-14T15:00:20;99276.66;;;15.23;36.30
57376;BME280;44805;45.048;5.062;2023-03-14T15:02:47;99278.78;;;15.34;37.20
57376;BME280;44805;45.048;5.062;2023-03-14T15:05:17;99273.19;;;15.22;36.28
57376;BME280;44805;45.048;5.062;2023-03-14T15:07:46;99278.72;;;14.84;36.69
57376;BME280;44805;45.048;5.062;2023-03-14T15:10:15;99280.72;;;14.82;37.11
57376;BME280;44805;45.048;5.062;2023-03-14T15:15:44;99287.88;;;15.03;37.87
57376;BME280;44805;45.048;5.062;2023-03-14T15:18:15;99285.03;;;15.05;37.72
57376;BME280;44805;45.048;5.062;2023-03-14T15:20:42;99280.13;;;15.02;37.72
57376;BME280;44805;45.048;5.062;2023-03-14T15:23:09;99280.81;;;14.89;37.91
57376;BME280;44805;45.048;5.062;2023-03-14T15:25:34;99280.72;;;14.82;36.50
57376;BME280;44805;45.048;5.062;2023-03-14T15:28:17;99283.09;;;14.77;36.75
57376;BME280;44805;45.048;5.062;2023-03-14T15:30:42;99274.09;;;14.93;37.21